Terminal Aerodrome Forecast
Issued by NWS

Current Version | Previous Version | Text Only | Print | Product List | Glossary On
Versions: 1 2 3 4 5 6 7 8 9 10 11 12 13 14 15 16 17 18 19 20 21 22 23 24 25
000
FTUS41 KCTP 191736
TAFBFD
TAF
KBFD 191736Z 1918/2018 28009G15KT P6SM SCT250
     FM200000 31005KT P6SM SCT250
     FM200600 32005KT P6SM OVC025
     FM201500 34006KT P6SM SCT025 OVC050=

USA.gov is the U.S. government's official web portal to all federal, state and local government web resources and services.